createdAt,value
2022-12-12T00:00:51.912Z,8.80
2022-12-12T00:03:21.717Z,7.75
2022-12-12T00:05:53.908Z,7.60
2022-12-12T00:08:22.060Z,7.00
2022-12-12T00:10:49.414Z,7.40
2022-12-12T00:13:18.978Z,6.85
2022-12-12T00:15:46.477Z,6.32
2022-12-12T00:18:14.019Z,6.40
2022-12-12T00:20:41.638Z,5.90
2022-12-12T00:23:09.022Z,5.72
2022-12-12T00:25:36.304Z,5.68
2022-12-12T00:28:03.824Z,6.32
2022-12-12T00:30:31.164Z,6.63
2022-12-12T00:32:59.145Z,7.00
2022-12-12T00:35:27.447Z,5.57
2022-12-12T00:37:54.780Z,5.72
2022-12-12T00:40:22.085Z,5.72
2022-12-12T00:42:51.526Z,5.72
2022-12-12T00:45:18.958Z,5.55
2022-12-12T00:47:46.300Z,5.75
2022-12-12T00:50:13.750Z,5.88
2022-12-12T00:52:44.057Z,5.57
2022-12-12T00:55:12.676Z,6.40
2022-12-12T00:57:40.129Z,5.72
2022-12-12T01:00:09.212Z,5.47
2022-12-12T01:02:36.903Z,5.13
2022-12-12T01:05:04.703Z,5.18
2022-12-12T01:07:32.039Z,5.30
2022-12-12T01:09:59.397Z,4.82
2022-12-12T01:12:26.800Z,4.05
2022-12-12T01:14:54.137Z,4.40
2022-12-12T01:17:21.651Z,4.28
2022-12-12T01:19:49.071Z,3.78
2022-12-12T01:22:16.612Z,4.10
2022-12-12T01:24:44.022Z,3.53
2022-12-12T01:27:11.590Z,4.15
2022-12-12T01:29:38.860Z,3.92
2022-12-12T01:32:06.356Z,3.25
2022-12-12T01:34:33.650Z,3.10
2022-12-12T01:37:01.008Z,3.08
2022-12-12T01:39:28.522Z,3.08
2022-12-12T01:41:55.981Z,3.30
2022-12-12T01:44:49.405Z,3.20
2022-12-12T01:47:20.281Z,3.25
2022-12-12T01:50:09.234Z,3.35
2022-12-12T01:52:49.732Z,3.08
2022-12-12T01:55:21.291Z,3.20
2022-12-12T01:57:52.645Z,3.60
2022-12-12T02:00:21.132Z,3.47
2022-12-12T02:02:48.916Z,3.17
2022-12-12T02:05:25.800Z,3.30
2022-12-12T02:07:54.249Z,3.63
2022-12-12T02:10:21.684Z,3.72
2022-12-12T02:12:49.101Z,3.72
2022-12-12T02:15:17.207Z,3.60
2022-12-12T02:17:50.449Z,3.70
2022-12-12T02:20:35.783Z,3.78
2022-12-12T02:23:03.076Z,4.15
2022-12-12T02:26:03.209Z,4.10
2022-12-12T02:29:08.027Z,4.43
2022-12-12T02:31:52.587Z,4.45
2022-12-12T02:34:23.379Z,5.57
2022-12-12T02:37:04.237Z,4.90
2022-12-12T02:39:50.004Z,4.97
2022-12-12T02:42:28.951Z,4.70
2022-12-12T02:45:02.401Z,4.82
2022-12-12T02:47:39.437Z,5.20
2022-12-12T02:50:11.285Z,5.70
2022-12-12T02:52:38.981Z,4.97
2022-12-12T02:55:06.813Z,5.00
2022-12-12T02:57:34.154Z,5.20
2022-12-12T03:00:08.279Z,5.05
2022-12-12T03:03:17.545Z,4.78
2022-12-12T03:06:35.066Z,5.10
2022-12-12T03:09:05.017Z,4.70
2022-12-12T03:11:54.171Z,4.22
2022-12-12T03:14:34.860Z,4.93
2022-12-12T03:17:13.799Z,5.20
2022-12-12T03:20:24.366Z,4.60
2022-12-12T03:22:54.663Z,4.95
2022-12-12T03:25:34.458Z,5.20
2022-12-12T03:28:26.409Z,5.47
2022-12-12T03:33:34.620Z,5.93
2022-12-12T03:36:15.574Z,5.95
2022-12-12T03:38:48.464Z,6.33
2022-12-12T03:41:20.456Z,5.88
2022-12-12T03:44:14.617Z,6.78
2022-12-12T03:46:52.019Z,8.32
2022-12-12T03:49:48.074Z,8.65
2022-12-12T03:52:35.629Z,8.30
2022-12-12T03:55:27.518Z,7.60
2022-12-12T03:58:04.729Z,8.73
2022-12-12T04:00:37.307Z,8.07
2022-12-12T04:03:35.866Z,8.35
2022-12-12T04:06:27.233Z,9.43
2022-12-12T04:09:26.207Z,9.68
2022-12-12T04:12:27.590Z,10.13
2022-12-12T04:15:08.923Z,10.85
2022-12-12T04:18:08.733Z,10.90
2022-12-12T04:21:06.289Z,10.65
2022-12-12T04:23:45.113Z,10.00
2022-12-12T04:26:38.781Z,10.20
2022-12-12T04:29:29.115Z,10.40
2022-12-12T04:32:23.891Z,10.55
2022-12-12T04:34:53.944Z,10.38
2022-12-12T04:37:28.588Z,10.02
2022-12-12T04:39:59.821Z,9.48
2022-12-12T04:42:32.514Z,9.93
2022-12-12T04:45:06.967Z,9.57
2022-12-12T04:47:37.014Z,9.35
2022-12-12T04:50:08.365Z,8.90
2022-12-12T04:52:37.323Z,9.27
2022-12-12T04:55:26.567Z,8.73
2022-12-12T04:57:56.886Z,8.57
2022-12-12T05:00:30.581Z,8.85
2022-12-12T05:03:00.200Z,9.00
2022-12-12T05:05:44.805Z,9.30
2022-12-12T05:08:12.173Z,8.88
2022-12-12T05:10:45.552Z,9.07
2022-12-12T05:13:22.544Z,8.77
2022-12-12T05:15:53.059Z,8.13
2022-12-12T05:18:21.113Z,8.10
2022-12-12T05:20:48.785Z,7.80
2022-12-12T05:23:16.763Z,7.43
2022-12-12T05:25:44.199Z,8.93
2022-12-12T05:28:12.245Z,8.48
2022-12-12T05:30:39.690Z,7.55
2022-12-12T05:33:07.129Z,7.97
2022-12-12T05:35:34.500Z,8.27
2022-12-12T05:38:03.587Z,7.75
2022-12-12T05:40:31.010Z,7.55
2022-12-12T05:42:58.618Z,7.47
2022-12-12T05:45:25.940Z,7.70
2022-12-12T05:47:53.435Z,8.55
2022-12-12T05:50:20.757Z,7.40
2022-12-12T05:52:48.186Z,8.00
2022-12-12T05:55:15.733Z,7.43
2022-12-12T05:57:43.214Z,8.25
2022-12-12T06:00:11.067Z,7.90
2022-12-12T06:02:39.213Z,8.23
2022-12-12T06:05:07.431Z,8.32
2022-12-12T06:07:34.787Z,8.25
2022-12-12T06:10:02.173Z,8.35
2022-12-12T06:12:29.524Z,8.18
2022-12-12T06:14:56.832Z,8.00
2022-12-12T06:17:31.231Z,7.22
2022-12-12T06:20:00.443Z,8.13
2022-12-12T06:22:27.824Z,7.50
2022-12-12T06:24:55.153Z,6.95
2022-12-12T06:27:22.528Z,6.85
2022-12-12T06:29:49.829Z,7.32
2022-12-12T06:32:19.990Z,7.00
2022-12-12T06:34:47.349Z,6.43
2022-12-12T06:37:17.390Z,5.75
2022-12-12T06:39:45.176Z,5.95
2022-12-12T06:42:12.629Z,6.32
2022-12-12T06:44:40.030Z,6.18
2022-12-12T06:47:09.460Z,5.78
2022-12-12T06:49:37.087Z,5.07
2022-12-12T06:52:05.312Z,6.20
2022-12-12T06:54:32.653Z,6.57
2022-12-12T06:57:00.345Z,6.32
2022-12-12T06:59:29.550Z,8.15
2022-12-12T07:01:57.537Z,7.63
2022-12-12T07:04:25.850Z,7.65
2022-12-12T07:06:53.785Z,7.63
2022-12-12T07:09:21.214Z,7.68
2022-12-12T07:11:49.974Z,8.45
2022-12-12T07:14:17.397Z,7.80
2022-12-12T07:16:44.772Z,8.57
2022-12-12T07:19:12.189Z,8.20
2022-12-12T07:21:39.613Z,7.53
2022-12-12T07:24:07.177Z,8.02
2022-12-12T07:26:34.653Z,8.80
2022-12-12T07:29:05.257Z,8.93
2022-12-12T07:31:33.016Z,8.15
2022-12-12T07:34:00.392Z,8.35
2022-12-12T07:36:30.633Z,9.23
2022-12-12T07:38:58.051Z,8.02
2022-12-12T07:41:25.400Z,8.80
2022-12-12T07:43:55.013Z,7.85
2022-12-12T07:46:24.784Z,8.60
2022-12-12T07:48:54.050Z,8.57
2022-12-12T07:51:22.232Z,7.93
2022-12-12T07:53:49.750Z,8.43
2022-12-12T07:56:19.179Z,7.55
2022-12-12T07:58:47.012Z,8.15
2022-12-12T08:01:16.456Z,8.63
2022-12-12T08:03:45.477Z,8.73
2022-12-12T08:06:13.956Z,9.25
2022-12-12T08:08:41.244Z,8.95
2022-12-12T08:11:11.724Z,8.55
2022-12-12T08:13:39.774Z,8.50
2022-12-12T08:16:12.968Z,8.35
2022-12-12T08:18:40.486Z,7.07
2022-12-12T08:21:09.328Z,8.55
2022-12-12T08:23:37.386Z,8.50
2022-12-12T08:26:10.100Z,7.75
2022-12-12T08:28:37.904Z,8.90
2022-12-12T08:31:05.438Z,8.65
2022-12-12T08:33:33.020Z,9.43
2022-12-12T08:36:11.166Z,8.68
2022-12-12T08:38:38.541Z,9.05
2022-12-12T08:41:07.269Z,8.77
2022-12-12T08:43:34.586Z,8.73
2022-12-12T08:46:03.881Z,8.57
2022-12-12T08:48:31.497Z,8.75
2022-12-12T08:50:59.558Z,9.27
2022-12-12T08:53:28.060Z,8.10
2022-12-12T08:55:55.914Z,8.63
2022-12-12T08:58:23.565Z,8.38
2022-12-12T09:00:50.857Z,8.82
2022-12-12T09:03:18.699Z,8.63
2022-12-12T09:05:46.757Z,9.00
2022-12-12T09:08:15.002Z,9.90
2022-12-12T09:10:42.947Z,9.18
2022-12-12T09:13:11.376Z,9.35
2022-12-12T09:15:39.024Z,8.85
2022-12-12T09:18:09.059Z,10.30
2022-12-12T09:20:36.375Z,8.85
2022-12-12T09:23:03.849Z,10.10
2022-12-12T09:25:31.214Z,9.30
2022-12-12T09:27:58.852Z,9.15
2022-12-12T09:30:26.240Z,9.13
2022-12-12T09:32:53.561Z,9.77
2022-12-12T09:35:20.958Z,10.00
2022-12-12T09:37:48.319Z,9.13
2022-12-12T09:40:23.766Z,9.98
2022-12-12T09:42:51.907Z,10.63
2022-12-12T09:45:20.422Z,10.18
2022-12-12T09:47:56.828Z,9.88
2022-12-12T09:50:31.897Z,9.40
2022-12-12T09:53:05.438Z,9.80
2022-12-12T09:55:39.785Z,10.32
2022-12-12T09:58:20.807Z,11.00
2022-12-12T10:01:11.924Z,11.95
2022-12-12T10:03:48.060Z,11.38
2022-12-12T10:09:21.581Z,10.93
2022-12-12T10:11:54.497Z,11.25
2022-12-12T10:14:31.784Z,10.90
2022-12-12T10:17:01.341Z,11.02
2022-12-12T10:19:37.687Z,10.38
2022-12-12T10:22:12.252Z,10.80
2022-12-12T10:25:23.364Z,11.55
2022-12-12T10:27:56.176Z,11.43
2022-12-12T10:30:23.932Z,11.98
2022-12-12T10:33:13.142Z,11.70
2022-12-12T10:35:55.764Z,10.20
2022-12-12T10:38:44.876Z,11.52
2022-12-12T10:41:17.790Z,12.70
2022-12-12T10:43:51.433Z,12.98
2022-12-12T10:46:48.309Z,11.85
2022-12-12T10:49:18.464Z,11.65
2022-12-12T10:51:48.262Z,12.35
2022-12-12T10:54:19.586Z,12.15
2022-12-12T10:57:20.093Z,11.20
2022-12-12T10:59:54.132Z,11.23
2022-12-12T11:02:41.452Z,11.43
2022-12-12T11:05:18.192Z,11.93
2022-12-12T11:07:48.630Z,11.27
2022-12-12T11:10:30.591Z,11.13
2022-12-12T11:13:09.215Z,10.98
2022-12-12T11:15:41.182Z,11.98
2022-12-12T11:23:21.140Z,9.43
2022-12-12T11:25:59.619Z,10.27
2022-12-12T11:28:34.673Z,9.05
2022-12-12T11:31:07.017Z,9.68
2022-12-12T11:33:46.836Z,9.50
2022-12-12T11:36:21.651Z,9.95
2022-12-12T11:38:58.608Z,10.27
2022-12-12T11:41:26.044Z,8.98
2022-12-12T11:43:59.941Z,9.32
2022-12-12T11:46:28.975Z,11.52
2022-12-12T11:48:57.963Z,11.85
2022-12-12T11:51:36.238Z,12.68
2022-12-12T11:54:27.699Z,13.38
2022-12-12T11:57:06.477Z,13.75
2022-12-12T11:59:46.009Z,14.07
2022-12-12T12:02:22.316Z,13.93
2022-12-12T12:05:16.031Z,12.73
2022-12-12T12:07:54.570Z,13.30
2022-12-12T12:10:53.222Z,13.77
2022-12-12T12:13:39.408Z,12.32
2022-12-12T12:16:46.869Z,12.88
2022-12-12T12:19:26.348Z,13.32
2022-12-12T12:22:07.600Z,13.32
2022-12-12T12:24:49.095Z,12.73
2022-12-12T12:27:46.384Z,12.85
2022-12-12T12:30:21.272Z,13.23
2022-12-12T12:32:57.465Z,12.95
2022-12-12T12:35:32.856Z,12.85
2022-12-12T12:38:43.120Z,13.38
2022-12-12T12:41:22.544Z,13.60
2022-12-12T12:44:08.190Z,13.25
2022-12-12T12:46:57.261Z,13.40
2022-12-12T12:49:29.052Z,13.57
2022-12-12T12:52:21.786Z,14.00
2022-12-12T12:54:49.655Z,14.43
2022-12-12T12:57:27.950Z,14.13
2022-12-12T13:00:04.134Z,13.40
2022-12-12T13:02:52.813Z,13.85
2022-12-12T13:05:36.613Z,13.65
2022-12-12T13:08:24.364Z,13.68
2022-12-12T13:10:59.966Z,13.20
2022-12-12T13:13:35.149Z,13.45
2022-12-12T13:16:11.772Z,13.32
2022-12-12T13:18:48.078Z,13.65
2022-12-12T13:21:39.374Z,13.93
2022-12-12T13:24:16.249Z,13.70
2022-12-12T13:26:49.577Z,13.48
2022-12-12T13:29:45.002Z,13.32
2022-12-12T13:32:34.066Z,12.98
2022-12-12T13:35:09.001Z,11.95
2022-12-12T13:37:54.421Z,12.68
2022-12-12T13:40:58.632Z,10.30
2022-12-12T13:43:28.096Z,11.77
2022-12-12T13:45:56.072Z,11.23
2022-12-12T13:48:29.389Z,11.18
2022-12-12T13:51:27.796Z,11.35
2022-12-12T13:54:14.950Z,9.77
2022-12-12T13:56:57.661Z,9.85
2022-12-12T13:59:27.856Z,11.82
2022-12-12T14:02:02.955Z,11.02
2022-12-12T14:04:35.359Z,12.75
2022-12-12T14:07:21.832Z,11.50
2022-12-12T14:09:53.654Z,12.00
2022-12-12T14:15:05.290Z,11.40
2022-12-12T14:17:42.314Z,11.55
2022-12-12T14:20:31.461Z,11.55
2022-12-12T14:23:25.414Z,12.32
2022-12-12T14:25:53.541Z,12.45
2022-12-12T14:28:32.358Z,12.98
2022-12-12T14:31:16.748Z,13.05
2022-12-12T14:33:47.927Z,13.50
2022-12-12T14:36:46.112Z,14.00
2022-12-12T14:39:16.150Z,13.20
2022-12-12T14:41:45.705Z,13.23
2022-12-12T14:44:37.085Z,12.88
2022-12-12T14:47:09.900Z,13.35
2022-12-12T14:49:37.328Z,12.57
2022-12-12T14:52:08.108Z,12.65
2022-12-12T14:54:36.050Z,13.10
2022-12-12T14:57:07.634Z,13.30
2022-12-12T14:59:41.034Z,12.55
2022-12-12T15:02:32.653Z,13.63
2022-12-12T15:05:04.996Z,14.55
2022-12-12T15:07:35.758Z,14.13
2022-12-12T15:10:03.700Z,13.25
2022-12-12T15:12:35.588Z,13.75
2022-12-12T15:15:05.204Z,13.82
2022-12-12T15:17:49.596Z,13.90
2022-12-12T15:20:20.975Z,14.65
2022-12-12T15:23:07.161Z,14.82
2022-12-12T15:25:46.765Z,14.65
2022-12-12T15:28:20.331Z,14.02
2022-12-12T15:30:52.468Z,14.32
2022-12-12T15:33:26.034Z,15.00
2022-12-12T15:36:01.503Z,14.75
2022-12-12T15:38:30.008Z,14.98
2022-12-12T15:40:59.925Z,14.18
2022-12-12T15:43:29.830Z,14.63
2022-12-12T15:46:00.292Z,14.95
2022-12-12T15:48:27.785Z,13.73
2022-12-12T15:50:59.455Z,14.02
2022-12-12T15:53:29.716Z,16.35
2022-12-12T15:55:59.488Z,17.17
2022-12-12T15:58:41.142Z,17.77
2022-12-12T16:01:21.669Z,18.58
2022-12-12T16:04:21.226Z,17.67
2022-12-12T16:06:49.216Z,16.50
2022-12-12T16:09:26.622Z,17.23
2022-12-12T16:11:55.829Z,17.30
2022-12-12T16:14:32.565Z,14.75
2022-12-12T16:17:13.446Z,10.02
2022-12-12T16:20:01.517Z,15.35
2022-12-12T16:22:34.660Z,15.18
2022-12-12T16:25:22.124Z,15.85
2022-12-12T16:28:11.584Z,15.88
2022-12-12T16:30:43.948Z,15.70
2022-12-12T16:33:34.141Z,16.20
2022-12-12T16:36:06.472Z,15.05
2022-12-12T16:38:34.948Z,15.35
2022-12-12T16:41:08.924Z,17.42
2022-12-12T16:43:38.843Z,16.27
2022-12-12T16:46:09.465Z,17.60
2022-12-12T16:48:37.991Z,16.27
2022-12-12T16:51:08.227Z,17.20
2022-12-12T16:53:38.869Z,17.58
2022-12-12T16:56:06.545Z,18.45
2022-12-12T16:58:34.060Z,18.27
2022-12-12T17:01:02.776Z,17.20
2022-12-12T17:03:32.140Z,17.42
2022-12-12T17:06:00.150Z,16.65
2022-12-12T17:08:27.782Z,18.55
2022-12-12T17:11:09.322Z,19.02
2022-12-12T17:13:44.931Z,16.88
2022-12-12T17:16:12.369Z,19.83
2022-12-12T17:18:39.860Z,19.92
2022-12-12T17:21:07.271Z,20.17
2022-12-12T17:23:34.781Z,20.80
2022-12-12T17:26:04.763Z,17.90
2022-12-12T17:28:33.925Z,19.70
2022-12-12T17:31:03.177Z,19.63
2022-12-12T17:33:30.687Z,18.48
2022-12-12T17:36:06.123Z,17.92
2022-12-12T17:38:34.936Z,18.80
2022-12-12T17:41:04.980Z,20.02
2022-12-12T17:43:32.410Z,18.48
2022-12-12T17:46:01.544Z,19.42
2022-12-12T17:48:33.794Z,18.75
2022-12-12T17:51:04.323Z,19.00
2022-12-12T17:53:36.724Z,17.55
2022-12-12T17:56:14.977Z,18.08
2022-12-12T17:58:44.692Z,17.98
2022-12-12T18:01:15.120Z,19.90
2022-12-12T18:03:43.434Z,19.23
2022-12-12T18:06:11.495Z,19.50
2022-12-12T18:08:39.369Z,18.83
2022-12-12T18:11:12.873Z,18.98
2022-12-12T18:13:41.165Z,19.00
2022-12-12T18:16:10.969Z,19.27
2022-12-12T18:18:38.763Z,18.50
2022-12-12T18:24:19.068Z,17.70
2022-12-12T18:26:47.714Z,18.45
2022-12-12T18:29:16.321Z,18.25
2022-12-12T18:31:43.990Z,18.55
2022-12-12T18:34:11.556Z,18.95
2022-12-12T18:36:39.516Z,18.08
2022-12-12T18:39:07.070Z,19.20
2022-12-12T18:41:36.871Z,18.65
2022-12-12T18:44:08.212Z,18.80
2022-12-12T18:46:42.199Z,20.42
2022-12-12T18:49:13.206Z,19.75
2022-12-12T18:51:41.202Z,20.20
2022-12-12T18:54:14.350Z,18.10
2022-12-12T18:56:45.742Z,19.17
2022-12-12T18:59:13.953Z,17.77
2022-12-12T19:01:41.587Z,17.88
2022-12-12T19:04:13.169Z,17.40
2022-12-12T19:06:43.245Z,17.88
2022-12-12T19:09:14.741Z,16.92
2022-12-12T19:11:43.035Z,17.83
2022-12-12T19:14:15.815Z,18.40
2022-12-12T19:16:44.146Z,18.70
2022-12-12T19:19:12.387Z,18.90
2022-12-12T19:21:41.235Z,18.10
2022-12-12T19:24:09.838Z,19.45
2022-12-12T19:26:39.415Z,19.92
2022-12-12T19:29:10.246Z,18.73
2022-12-12T19:31:37.967Z,19.73
2022-12-12T19:34:09.587Z,18.20
2022-12-12T19:36:38.739Z,19.27
2022-12-12T19:39:07.786Z,18.67
2022-12-12T19:41:35.689Z,19.92
2022-12-12T19:44:06.535Z,19.60
2022-12-12T19:46:34.212Z,19.52
2022-12-12T19:49:04.684Z,19.70
2022-12-12T19:51:35.880Z,19.50
2022-12-12T19:54:07.906Z,19.95
2022-12-12T19:56:36.774Z,20.33
2022-12-12T19:59:04.953Z,20.25
2022-12-12T20:01:35.108Z,19.80
2022-12-12T20:04:30.249Z,20.75
2022-12-12T20:06:58.118Z,21.23
2022-12-12T20:09:30.958Z,19.52
2022-12-12T20:12:00.595Z,18.30
2022-12-12T20:14:30.506Z,17.10
2022-12-12T20:16:59.854Z,17.13
2022-12-12T20:19:29.340Z,18.05
2022-12-12T20:22:01.742Z,16.60
2022-12-12T20:24:33.317Z,17.90
2022-12-12T20:27:03.685Z,16.73
2022-12-12T20:29:31.482Z,17.17
2022-12-12T20:32:00.028Z,17.77
2022-12-12T20:34:28.491Z,18.52
2022-12-12T20:36:56.176Z,18.30
2022-12-12T20:39:25.084Z,17.25
2022-12-12T20:41:57.461Z,17.63
2022-12-12T20:44:25.940Z,17.70
2022-12-12T20:46:56.540Z,16.77
2022-12-12T20:49:24.784Z,16.70
2022-12-12T20:51:56.031Z,17.85
2022-12-12T20:56:54.073Z,16.08
2022-12-12T20:59:21.765Z,17.00
2022-12-12T21:01:49.428Z,16.63
2022-12-12T21:04:17.059Z,16.95
2022-12-12T21:06:50.130Z,17.63
2022-12-12T21:09:23.720Z,16.58
2022-12-12T21:11:58.367Z,16.88
2022-12-12T21:14:27.651Z,16.00
2022-12-12T21:16:55.288Z,16.58
2022-12-12T21:19:23.596Z,16.42
2022-12-12T21:21:51.644Z,16.45
2022-12-12T21:24:19.636Z,17.20
2022-12-12T21:26:47.914Z,17.00
2022-12-12T21:29:16.186Z,16.27
2022-12-12T21:31:50.508Z,17.27
2022-12-12T21:34:23.479Z,17.15
2022-12-12T21:36:55.416Z,18.95
2022-12-12T21:39:26.718Z,18.33
2022-12-12T21:41:55.693Z,18.60
2022-12-12T21:44:23.429Z,18.60
2022-12-12T21:46:51.239Z,18.13
2022-12-12T21:49:28.504Z,18.25
2022-12-12T21:52:01.497Z,18.17
2022-12-12T21:54:30.153Z,17.60
2022-12-12T21:56:59.525Z,17.95
2022-12-12T21:59:27.263Z,17.10
2022-12-12T22:01:56.750Z,16.33
2022-12-12T22:04:24.609Z,16.02
2022-12-12T22:06:51.972Z,16.02
2022-12-12T22:09:19.430Z,16.13
2022-12-12T22:11:50.037Z,13.57
2022-12-12T22:14:21.368Z,14.10
2022-12-12T22:16:49.359Z,13.80
2022-12-12T22:19:17.304Z,14.75
2022-12-12T22:21:47.307Z,14.18
2022-12-12T22:24:16.715Z,12.55
2022-12-12T22:26:47.122Z,14.48
2022-12-12T22:29:20.859Z,14.23
2022-12-12T22:31:50.192Z,13.15
2022-12-12T22:34:23.698Z,14.13
2022-12-12T22:36:52.420Z,13.30
2022-12-12T22:39:25.365Z,13.50
2022-12-12T22:41:55.526Z,14.18
2022-12-12T22:44:24.321Z,14.90
2022-12-12T22:46:53.322Z,14.23
2022-12-12T22:49:25.666Z,14.90
2022-12-12T22:51:58.386Z,13.95
2022-12-12T22:56:53.542Z,12.85
2022-12-12T22:59:21.278Z,13.15
2022-12-12T23:01:48.644Z,13.70
2022-12-12T23:04:16.272Z,12.70
2022-12-12T23:06:44.359Z,14.75
2022-12-12T23:09:15.523Z,15.00
2022-12-12T23:11:44.275Z,14.00
2022-12-12T23:14:17.984Z,12.00
2022-12-12T23:16:46.352Z,12.88
2022-12-12T23:19:16.612Z,11.98
2022-12-12T23:21:44.491Z,12.32
2022-12-12T23:24:12.370Z,11.77
2022-12-12T23:26:40.028Z,11.93
2022-12-12T23:29:10.883Z,12.15
2022-12-12T23:31:39.320Z,13.77
2022-12-12T23:34:12.225Z,12.80
2022-12-12T23:36:39.622Z,11.82
2022-12-12T23:39:11.846Z,11.85
2022-12-12T23:41:40.173Z,12.48
2022-12-12T23:44:08.064Z,12.90
2022-12-12T23:46:36.403Z,12.70
2022-12-12T23:49:08.526Z,13.05
2022-12-12T23:51:41.364Z,11.52
2022-12-12T23:54:15.597Z,10.80
2022-12-12T23:56:44.636Z,12.07
2022-12-12T23:59:17.422Z,11.77
